Time;durP1;ratioP1;P1;durP2;ratioP2;P2;SDS_P1;SDS_P2;PMS_P1;PMS_P2;Temp;Humidity;BMP_temperature;BMP_pressure;BME280_temperature;BME280_humidity;BME280_pressure;Samples;Min_cycle;Max_cycle;Signal;HPM_P1;HPM_P2
2023/07/22 00:00:22;;;;;;;;;;;17.90;99.90;;;;;;2615038;54;19946;-67
2023/07/22 00:02:52;;;;;;;;;;;17.90;99.90;;;;;;2614907;54;19954;-68
2023/07/22 00:05:23;;;;;;;;;;;17.80;99.90;;;;;;2615457;47;20006;-68
2023/07/22 00:07:55;;;;;;;;;;;17.80;99.90;;;;;;2613971;47;19947;-68
2023/07/22 00:10:25;;;;;;;;;;;17.80;99.90;;;;;;2616583;46;19955;-69
2023/07/22 00:12:54;;;;;;;;;;;17.80;99.90;;;;;;2618513;54;19956;-68
2023/07/22 00:15:25;;;;;;;;;;;17.80;99.90;;;;;;2615264;54;19946;-67
2023/07/22 00:17:55;;;;;;;;;;;17.70;99.90;;;;;;2615253;54;19946;-68
2023/07/22 00:20:25;;;;;;;;;;;17.80;99.90;;;;;;2617427;54;20023;-67
2023/07/22 00:22:57;;;;;;;;;;;17.70;99.90;;;;;;2626474;54;20038;-67
2023/07/22 00:25:27;;;;;;;;;;;17.60;99.90;;;;;;2621370;54;20045;-68
2023/07/22 00:27:57;;;;;;;;;;;17.60;99.90;;;;;;2616032;54;19951;-68
2023/07/22 00:30:28;;;;;;;;;;;17.60;99.90;;;;;;2613979;54;19957;-66
2023/07/22 00:32:57;;;;;;;;;;;17.50;99.90;;;;;;2615816;54;20015;-68
2023/07/22 00:35:27;;;;;;;;;;;17.50;99.90;;;;;;2614522;54;19955;-67
2023/07/22 00:37:59;;;;;;;;;;;17.40;99.90;;;;;;2614668;54;19946;-68
2023/07/22 00:40:30;;;;;;;;;;;17.30;99.90;;;;;;2615838;54;19953;-67
2023/07/22 00:43:00;;;;;;;;;;;17.20;99.90;;;;;;2614092;54;19947;-68
2023/07/22 00:45:30;;;;;;;;;;;17.10;99.90;;;;;;2613160;54;20446;-68
2023/07/22 00:47:59;;;;;;;;;;;17.10;99.90;;;;;;2615183;54;19946;-67
2023/07/22 00:50:29;;;;;;;;;;;17.10;99.90;;;;;;2614550;54;19954;-67
2023/07/22 00:53:01;;;;;;;;;;;17.10;99.90;;;;;;2615047;47;19954;-69
2023/07/22 00:55:31;;;;;;;;;;;17.10;99.90;;;;;;2612098;54;19946;-68
2023/07/22 00:58:01;;;;;;;;;;;17.00;99.90;;;;;;2615003;47;20707;-68
2023/07/22 01:00:31;;;;;;;;;;;17.00;99.90;;;;;;2615114;54;19951;-68
2023/07/22 01:03:01;;;;;;;;;;;17.00;99.90;;;;;;2613929;54;19946;-68
2023/07/22 01:05:31;;;;;;;;;;;16.90;99.90;;;;;;2615416;54;20448;-68
2023/07/22 01:08:04;;;;;;;;;;;17.00;99.90;;;;;;2614872;47;19954;-68
2023/07/22 01:10:34;;;;;;;;;;;16.90;99.90;;;;;;2611734;54;19950;-68
2023/07/22 01:13:04;;;;;;;;;;;16.90;99.90;;;;;;2615024;47;19946;-68
2023/07/22 01:15:33;;;;;;;;;;;16.90;99.90;;;;;;2614575;54;20452;-67
2023/07/22 01:18:04;;;;;;;;;;;16.90;99.90;;;;;;2613582;54;19994;-68
2023/07/22 01:20:34;;;;;;;;;;;17.00;99.90;;;;;;2615337;47;19953;-67
2023/07/22 01:23:07;;;;;;;;;;;16.90;99.90;;;;;;2615942;54;19947;-68
2023/07/22 01:25:36;;;;;;;;;;;16.90;99.90;;;;;;2615390;54;19951;-68
2023/07/22 01:28:11;;;;;;;;;;;16.90;99.90;;;;;;2613473;54;19946;-68
2023/07/22 01:30:40;;;;;;;;;;;16.90;99.90;;;;;;2613805;39;20358;-68
2023/07/22 01:33:11;;;;;;;;;;;16.90;99.90;;;;;;2616546;54;19973;-68
2023/07/22 01:35:41;;;;;;;;;;;16.90;99.90;;;;;;2618782;39;20002;-68
2023/07/22 01:38:13;;;;;;;;;;;16.90;99.90;;;;;;2614712;54;19954;-68
2023/07/22 01:40:42;;;;;;;;;;;16.80;99.90;;;;;;2613586;47;19957;-68
2023/07/22 01:43:12;;;;;;;;;;;16.80;99.90;;;;;;2613384;54;19946;-68
2023/07/22 01:45:42;;;;;;;;;;;16.80;99.90;;;;;;2614527;54;19950;-68
2023/07/22 01:48:11;;;;;;;;;;;16.40;99.90;;;;;;2622889;54;19946;-67
2023/07/22 01:50:41;;;;;;;;;;;16.70;99.90;;;;;;2624427;46;19954;-67
2023/07/22 01:53:13;;;;;;;;;;;16.70;99.90;;;;;;2616017;54;19946;-68
2023/07/22 01:55:44;;;;;;;;;;;16.70;99.90;;;;;;2616345;54;19977;-68
2023/07/22 01:58:13;;;;;;;;;;;16.70;99.90;;;;;;2616135;54;19945;-67
2023/07/22 02:00:43;;;;;;;;;;;16.70;99.90;;;;;;2617925;39;20347;-69
2023/07/22 02:03:13;;;;;;;;;;;16.70;99.90;;;;;;2617314;54;19947;-67
2023/07/22 02:05:43;;;;;;;;;;;16.60;99.90;;;;;;2618643;54;19947;-67
2023/07/22 02:08:15;;;;;;;;;;;16.60;99.90;;;;;;2618412;54;19957;-69
2023/07/22 02:10:45;;;;;;;;;;;16.60;99.90;;;;;;2617398;54;19946;-68
2023/07/22 02:13:14;;;;;;;;;;;16.60;99.90;;;;;;2614560;54;19958;-68
2023/07/22 02:15:44;;;;;;;;;;;16.60;99.90;;;;;;2617260;47;19946;-68
2023/07/22 02:18:14;;;;;;;;;;;16.60;99.90;;;;;;2617188;54;19946;-68
2023/07/22 02:20:45;;;;;;;;;;;16.50;99.90;;;;;;2617018;47;19947;-68
2023/07/22 02:23:18;;;;;;;;;;;16.50;99.90;;;;;;2618090;54;19954;-68
2023/07/22 02:25:50;;;;;;;;;;;16.50;99.90;;;;;;2617324;54;19954;-68
2023/07/22 02:28:21;;;;;;;;;;;16.50;99.90;;;;;;2616768;39;20355;-68
2023/07/22 02:30:52;;;;;;;;;;;16.50;99.90;;;;;;2617065;54;19946;-68
2023/07/22 02:33:22;;;;;;;;;;;16.40;99.90;;;;;;2617709;31;20482;-69
2023/07/22 02:35:51;;;;;;;;;;;16.40;99.90;;;;;;2617562;54;19946;-69
2023/07/22 02:38:24;;;;;;;;;;;16.40;99.90;;;;;;2621783;54;19993;-69
2023/07/22 02:40:54;;;;;;;;;;;16.40;99.90;;;;;;2627522;54;19954;-68
2023/07/22 02:43:24;;;;;;;;;;;16.40;99.90;;;;;;2625188;54;19939;-69
2023/07/22 02:45:55;;;;;;;;;;;16.40;99.90;;;;;;2616024;54;19947;-68
2023/07/22 02:48:25;;;;;;;;;;;16.40;99.90;;;;;;2618558;47;19950;-71
2023/07/22 02:50:55;;;;;;;;;;;16.40;99.90;;;;;;2618166;54;19953;-69
2023/07/22 02:53:27;;;;;;;;;;;16.40;99.90;;;;;;2616858;54;19943;-68
2023/07/22 02:55:57;;;;;;;;;;;16.30;99.90;;;;;;2614564;54;19938;-70
2023/07/22 02:58:26;;;;;;;;;;;16.30;99.90;;;;;;2615193;54;19946;-68
